createdAt,value
2022-10-18T00:00:23.950Z,0
2022-10-18T00:05:48.422Z,0
2022-10-18T00:11:06.045Z,0
2022-10-18T00:16:23.397Z,0
2022-10-18T00:21:41.231Z,0
2022-10-18T00:27:07.694Z,0
2022-10-18T00:32:25.686Z,0
2022-10-18T00:38:00.118Z,0
2022-10-18T00:43:17.789Z,0
2022-10-18T00:48:42.284Z,0
2022-10-18T00:54:00.437Z,0
2022-10-18T00:59:17.678Z,0
2022-10-18T01:04:34.762Z,0
2022-10-18T01:09:52.054Z,0
2022-10-18T01:15:09.476Z,0
2022-10-18T01:20:26.622Z,0
2022-10-18T01:25:44.102Z,0
2022-10-18T01:31:01.425Z,0
2022-10-18T01:36:18.827Z,0
2022-10-18T01:41:38.689Z,0
2022-10-18T01:46:56.243Z,0
2022-10-18T01:52:13.480Z,0
2022-10-18T01:57:33.371Z,0
2022-10-18T02:02:50.787Z,0
2022-10-18T02:08:31.203Z,0
2022-10-18T02:13:48.973Z,0
2022-10-18T02:19:06.261Z,0
2022-10-18T02:24:23.541Z,0
2022-10-18T02:29:41.381Z,0
2022-10-18T02:34:58.621Z,0
2022-10-18T02:40:15.737Z,0
2022-10-18T02:45:33.133Z,0
2022-10-18T02:51:02.106Z,0
2022-10-18T02:56:20.046Z,0
2022-10-18T03:01:37.233Z,0
2022-10-18T03:06:54.571Z,0
2022-10-18T03:12:11.699Z,0
2022-10-18T03:17:29.111Z,0
2022-10-18T03:22:46.598Z,0
2022-10-18T03:28:03.834Z,0
2022-10-18T03:33:21.066Z,0
2022-10-18T03:38:43.404Z,0
2022-10-18T03:55:11.418Z,0
2022-10-18T04:00:28.601Z,0
2022-10-18T04:05:45.677Z,0
2022-10-18T04:11:06.075Z,0
2022-10-18T04:16:23.455Z,0
2022-10-18T04:21:40.797Z,0
2022-10-18T04:26:58.074Z,0
2022-10-18T04:32:18.209Z,0
2022-10-18T04:37:37.738Z,0
2022-10-18T04:42:55.482Z,0
2022-10-18T04:53:31.372Z,0
2022-10-18T04:58:49.065Z,0
2022-10-18T05:04:06.578Z,0
2022-10-18T05:09:23.624Z,0
2022-10-18T05:14:40.809Z,0
2022-10-18T05:20:03.916Z,0
2022-10-18T05:25:21.242Z,0
2022-10-18T05:30:41.094Z,0.3
2022-10-18T05:35:58.622Z,0
2022-10-18T05:41:15.976Z,0
2022-10-18T05:46:38.976Z,0
2022-10-18T05:51:55.953Z,22.5
2022-10-18T05:57:12.911Z,49.2
2022-10-18T06:02:29.977Z,78.7
2022-10-18T06:13:03.785Z,112.1
2022-10-18T06:18:23.400Z,173.3
2022-10-18T06:29:03.540Z,431.7
2022-10-18T06:34:21.059Z,586.7
2022-10-18T06:39:38.084Z,655
2022-10-18T06:45:03.473Z,353.8
2022-10-18T06:50:20.212Z,575.8
2022-10-18T06:55:38.000Z,538.7
2022-10-18T07:00:54.961Z,872.1
2022-10-18T07:06:11.921Z,1261.7
2022-10-18T07:11:29.118Z,2031.7
2022-10-18T07:16:48.629Z,1981.3
2022-10-18T07:22:05.903Z,2630
2022-10-18T07:27:23.092Z,3645
2022-10-18T07:32:40.148Z,3093.3
2022-10-18T07:37:57.201Z,4087.9
2022-10-18T07:43:14.205Z,3897.9
2022-10-18T07:48:48.641Z,4702.9
2022-10-18T07:54:06.206Z,8349.2
2022-10-18T07:59:23.278Z,6730.4
2022-10-18T08:04:47.584Z,4824.6
2022-10-18T08:10:04.759Z,3558.3
2022-10-18T08:15:21.801Z,7669.2
2022-10-18T08:20:38.976Z,8656.7
2022-10-18T08:25:56.695Z,5381.7
2022-10-18T08:31:15.792Z,2745.4
2022-10-18T08:36:32.499Z,2947.1
2022-10-18T08:41:51.961Z,2536.7
2022-10-18T08:47:09.057Z,6142.9
2022-10-18T08:52:26.723Z,10164.2
2022-10-18T08:57:44.089Z,8445.4
2022-10-18T09:03:01.103Z,6831.7
2022-10-18T09:13:31.368Z,7542.1
2022-10-18T09:18:48.354Z,8524.6
2022-10-18T09:24:05.400Z,8801.7
2022-10-18T09:29:22.659Z,7320.8
2022-10-18T09:34:42.063Z,7195.8
2022-10-18T09:39:59.332Z,11182.5
2022-10-18T09:45:16.596Z,8929.2
2022-10-18T09:50:33.004Z,5608.3
2022-10-18T09:55:49.746Z,6222.5
2022-10-18T10:01:06.861Z,11733.3
2022-10-18T10:11:41.025Z,9190.8
2022-10-18T10:16:58.284Z,10737.1
2022-10-18T10:22:15.189Z,10898.7
2022-10-18T10:27:35.636Z,11915.8
2022-10-18T10:32:52.811Z,11029.2
2022-10-18T10:38:09.901Z,11302.9
2022-10-18T10:43:40.709Z,19565
2022-10-18T10:49:20.945Z,13330
2022-10-18T10:54:39.034Z,9202.5
2022-10-18T11:05:19.803Z,9400
2022-10-18T11:10:45.284Z,8035.8
2022-10-18T11:16:02.270Z,9470.8
2022-10-18T11:21:19.654Z,25692.5
2022-10-18T11:26:39.429Z,17353.3
2022-10-18T11:32:00.582Z,16240
2022-10-18T11:37:38.323Z,12350.4
2022-10-18T11:42:54.781Z,7624.2
2022-10-18T11:48:12.113Z,14308.3
2022-10-18T11:53:41.142Z,13786.7
2022-10-18T11:58:57.140Z,7802.9
2022-10-18T12:04:26.212Z,10930.4
2022-10-18T12:09:49.963Z,13105.4
2022-10-18T12:26:26.397Z,13397.1
2022-10-18T12:31:43.376Z,14260.8
2022-10-18T12:37:00.706Z,9093.3
2022-10-18T12:54:35.769Z,11056.7
2022-10-18T13:05:21.120Z,10887.1
2022-10-18T13:35:25.328Z,9904.2
2022-10-18T13:40:41.852Z,9187.5
2022-10-18T13:45:58.425Z,8312.1
2022-10-18T13:51:15.158Z,8316.3
2022-10-18T13:56:31.713Z,4399.6
2022-10-18T14:01:50.751Z,4003.3
2022-10-18T14:07:08.949Z,3950
2022-10-18T14:12:25.344Z,3937.1
2022-10-18T14:17:42.050Z,3599.6
2022-10-18T14:22:58.751Z,3743.3
2022-10-18T14:28:19.859Z,3498.3
2022-10-18T14:33:41.145Z,3153.3
2022-10-18T14:38:57.871Z,3275.8
2022-10-18T14:44:17.108Z,3108.8
2022-10-18T14:49:45.644Z,3677.9
2022-10-18T14:55:02.776Z,2893.3
2022-10-18T15:00:21.998Z,2532.1
2022-10-18T15:05:38.961Z,2284.2
2022-10-18T15:11:03.263Z,2080.4
2022-10-18T15:16:20.224Z,1973.3
2022-10-18T15:26:57.181Z,1675.8
2022-10-18T15:32:14.052Z,1588.3
2022-10-18T15:37:30.996Z,1506.7
2022-10-18T15:42:48.146Z,1428.3
2022-10-18T15:48:05.023Z,1342.5
2022-10-18T15:53:21.964Z,1202.9
2022-10-18T15:58:38.940Z,1090.8
2022-10-18T16:04:04.907Z,964.6
2022-10-18T16:09:21.955Z,847.9
2022-10-18T16:14:41.220Z,715
2022-10-18T16:19:57.932Z,587.5
2022-10-18T16:25:15.002Z,431.7
2022-10-18T16:30:32.365Z,296.7
2022-10-18T16:35:52.555Z,183.8
2022-10-18T16:41:09.458Z,101.2
2022-10-18T16:46:26.306Z,53.3
2022-10-18T16:51:43.404Z,23.3
2022-10-18T17:02:20.848Z,0
2022-10-18T17:07:38.156Z,0
2022-10-18T17:12:55.261Z,0
2022-10-18T17:18:12.486Z,0
2022-10-18T17:23:32.424Z,0
2022-10-18T17:28:49.858Z,0
2022-10-18T17:34:07.060Z,0
2022-10-18T17:39:24.260Z,0
2022-10-18T17:44:44.257Z,0
2022-10-18T17:50:04.596Z,0
2022-10-18T17:55:21.868Z,0
2022-10-18T18:05:56.402Z,0
2022-10-18T18:11:15.787Z,0
2022-10-18T18:16:33.148Z,0
2022-10-18T18:21:50.317Z,0
2022-10-18T18:27:07.601Z,0
2022-10-18T18:32:24.789Z,0
2022-10-18T18:37:44.197Z,0
2022-10-18T18:43:12.244Z,0
2022-10-18T18:48:36.786Z,0
2022-10-18T18:53:54.010Z,0
2022-10-18T18:59:11.568Z,0
2022-10-18T19:09:45.736Z,0
2022-10-18T19:15:03.238Z,0
2022-10-18T19:20:20.586Z,0
2022-10-18T19:25:41.226Z,0
2022-10-18T19:31:07.623Z,0
2022-10-18T19:36:25.540Z,0
2022-10-18T19:41:42.688Z,0
2022-10-18T19:46:59.905Z,0
2022-10-18T19:52:22.341Z,0
2022-10-18T19:57:40.119Z,0
2022-10-18T20:02:57.278Z,0
2022-10-18T20:08:14.513Z,0
2022-10-18T20:13:31.781Z,0
2022-10-18T20:18:49.026Z,0
2022-10-18T20:24:23.438Z,0
2022-10-18T20:29:41.725Z,0
2022-10-18T20:34:58.884Z,0
2022-10-18T20:40:18.907Z,0
2022-10-18T20:51:13.496Z,0
2022-10-18T20:56:31.185Z,0
2022-10-18T21:01:54.019Z,0
2022-10-18T21:07:11.521Z,0
2022-10-18T21:12:32.144Z,0
2022-10-18T21:17:49.597Z,0
2022-10-18T21:23:07.180Z,0
2022-10-18T21:33:45.509Z,0
2022-10-18T21:39:02.774Z,0
2022-10-18T21:44:20.041Z,0
2022-10-18T21:49:37.835Z,0
2022-10-18T21:54:55.119Z,0
2022-10-18T22:00:12.280Z,0
2022-10-18T22:05:29.485Z,0
2022-10-18T22:10:46.812Z,0
2022-10-18T22:16:06.699Z,0
2022-10-18T22:21:26.803Z,0
2022-10-18T22:27:21.338Z,0
2022-10-18T22:32:39.582Z,0
2022-10-18T22:37:56.755Z,0
2022-10-18T22:43:14.042Z,0
2022-10-18T22:48:31.386Z,0
2022-10-18T22:53:48.512Z,0
2022-10-18T22:59:06.007Z,0
2022-10-18T23:04:25.538Z,0
2022-10-18T23:09:43.012Z,0
2022-10-18T23:15:00.171Z,0
2022-10-18T23:20:17.449Z,0
2022-10-18T23:25:34.573Z,0
2022-10-18T23:30:51.913Z,0
2022-10-18T23:36:09.266Z,0
2022-10-18T23:41:26.843Z,0
2022-10-18T23:46:43.909Z,0
2022-10-18T23:52:03.916Z,0
2022-10-18T23:57:21.118Z,0
